createdAt,value
2023-03-27T00:01:30.643Z,2.00
2023-03-27T00:04:00.552Z,2.40
2023-03-27T00:06:30.078Z,1.93
2023-03-27T00:08:58.402Z,2.43
2023-03-27T00:11:28.140Z,2.20
2023-03-27T00:13:56.524Z,2.40
2023-03-27T00:16:27.635Z,2.47
2023-03-27T00:18:56.532Z,2.20
2023-03-27T00:21:25.902Z,2.50
2023-03-27T00:23:54.558Z,2.67
2023-03-27T00:26:23.150Z,2.57
2023-03-27T00:28:53.559Z,1.97
2023-03-27T00:31:21.936Z,2.50
2023-03-27T00:33:50.418Z,2.40
2023-03-27T00:36:18.810Z,2.63
2023-03-27T00:38:47.097Z,2.50
2023-03-27T00:41:15.776Z,2.43
2023-03-27T00:43:44.908Z,2.47
2023-03-27T00:46:38.991Z,2.60
2023-03-27T00:49:11.780Z,2.70
2023-03-27T00:51:43.669Z,2.50
2023-03-27T00:54:16.203Z,2.60
2023-03-27T00:56:46.273Z,2.70
2023-03-27T00:59:18.874Z,2.97
2023-03-27T01:01:49.473Z,2.97
2023-03-27T01:04:21.445Z,3.10
2023-03-27T01:06:52.699Z,2.80
2023-03-27T01:09:21.508Z,2.70
2023-03-27T01:12:03.059Z,3.00
2023-03-27T01:14:39.541Z,2.90
2023-03-27T01:17:22.453Z,3.00
2023-03-27T01:20:14.567Z,3.00
2023-03-27T01:23:59.646Z,2.70
2023-03-27T01:27:00.399Z,2.67
2023-03-27T01:29:41.258Z,3.57
2023-03-27T01:32:42.048Z,2.30
2023-03-27T01:35:27.473Z,3.10
2023-03-27T01:38:21.755Z,3.03
2023-03-27T01:40:57.920Z,2.40
2023-03-27T01:43:34.278Z,2.70
2023-03-27T01:46:08.173Z,2.77
2023-03-27T01:48:42.156Z,3.00
2023-03-27T01:51:15.286Z,2.90
2023-03-27T01:53:49.928Z,3.00
2023-03-27T01:56:26.668Z,2.93
2023-03-27T01:59:04.013Z,3.20
2023-03-27T02:01:37.607Z,3.13
2023-03-27T02:04:13.231Z,3.20
2023-03-27T02:06:45.823Z,3.37
2023-03-27T02:09:18.386Z,3.10
2023-03-27T02:11:54.003Z,3.60
2023-03-27T02:14:27.621Z,3.33
2023-03-27T02:16:59.623Z,3.53
2023-03-27T02:19:33.538Z,3.40
2023-03-27T02:22:02.275Z,3.40
2023-03-27T02:24:43.125Z,3.30
2023-03-27T02:27:20.520Z,2.93
2023-03-27T02:30:06.215Z,3.67
2023-03-27T02:32:47.068Z,3.50
2023-03-27T02:35:29.825Z,3.10
2023-03-27T02:38:06.505Z,3.20
2023-03-27T02:40:47.594Z,3.30
2023-03-27T02:43:42.148Z,3.57
2023-03-27T02:46:21.432Z,3.20
2023-03-27T02:48:53.072Z,3.20
2023-03-27T02:51:26.798Z,3.50
2023-03-27T02:53:59.128Z,3.20
2023-03-27T02:56:33.208Z,3.13
2023-03-27T02:59:06.620Z,3.20
2023-03-27T03:01:40.254Z,2.90
2023-03-27T03:04:12.334Z,3.77
2023-03-27T03:06:58.935Z,3.63
2023-03-27T03:09:31.053Z,4.30
2023-03-27T03:12:01.271Z,3.60
2023-03-27T03:14:35.960Z,3.70
2023-03-27T03:17:04.668Z,3.50
2023-03-27T03:19:33.085Z,3.77
2023-03-27T03:22:02.062Z,3.33
2023-03-27T03:24:34.588Z,4.03
2023-03-27T03:27:05.712Z,9.23
2023-03-27T03:29:44.366Z,11.67
2023-03-27T03:32:21.944Z,11.63
2023-03-27T03:34:53.016Z,9.40
2023-03-27T03:37:21.828Z,9.10
2023-03-27T03:39:50.634Z,7.43
2023-03-27T03:42:22.179Z,4.93
2023-03-27T03:44:54.590Z,4.80
2023-03-27T03:47:24.197Z,4.37
2023-03-27T03:49:52.483Z,4.10
2023-03-27T03:52:21.075Z,4.23
2023-03-27T03:54:49.758Z,4.10
2023-03-27T03:57:18.535Z,5.30
2023-03-27T04:00:02.343Z,8.83
2023-03-27T04:02:45.431Z,14.93
2023-03-27T04:05:16.697Z,15.70
2023-03-27T04:07:45.826Z,16.63
2023-03-27T04:10:32.805Z,10.63
2023-03-27T04:13:04.718Z,8.07
2023-03-27T04:15:39.072Z,6.20
2023-03-27T04:18:19.727Z,5.07
2023-03-27T04:20:49.738Z,4.60
2023-03-27T04:23:19.864Z,4.30
2023-03-27T04:25:48.470Z,4.27
2023-03-27T04:28:22.694Z,4.20
2023-03-27T04:31:06.497Z,4.07
2023-03-27T04:34:01.323Z,3.40
2023-03-27T04:36:51.415Z,3.57
2023-03-27T04:39:24.174Z,3.57
2023-03-27T04:41:53.904Z,3.80
2023-03-27T04:44:22.415Z,3.83
2023-03-27T04:46:52.786Z,4.10
2023-03-27T04:49:21.235Z,3.80
2023-03-27T04:51:56.633Z,3.87
2023-03-27T04:54:31.660Z,4.17
2023-03-27T04:57:01.932Z,4.43
2023-03-27T04:59:31.979Z,4.00
2023-03-27T05:02:23.231Z,3.67
2023-03-27T05:05:13.739Z,4.40
2023-03-27T05:07:46.003Z,4.27
2023-03-27T05:10:21.909Z,4.40
2023-03-27T05:12:54.197Z,4.13
2023-03-27T05:15:25.004Z,4.70
2023-03-27T05:17:57.055Z,4.27
2023-03-27T05:20:27.447Z,4.23
2023-03-27T05:22:57.280Z,4.70
2023-03-27T05:25:30.898Z,4.90
2023-03-27T05:28:01.125Z,4.60
2023-03-27T05:30:36.023Z,4.53
2023-03-27T05:33:26.846Z,3.93
2023-03-27T05:35:58.634Z,4.47
2023-03-27T05:38:28.065Z,4.73
2023-03-27T05:41:16.093Z,4.67
2023-03-27T05:43:50.091Z,4.33
2023-03-27T05:47:22.202Z,4.63
2023-03-27T05:50:50.096Z,4.27
2023-03-27T05:54:10.790Z,5.00
2023-03-27T05:57:48.586Z,4.60
2023-03-27T06:00:29.174Z,5.40
2023-03-27T06:03:20.817Z,5.33
2023-03-27T06:06:28.688Z,5.20
2023-03-27T06:09:29.854Z,4.90
2023-03-27T06:12:34.140Z,4.80
2023-03-27T06:15:48.541Z,4.57
2023-03-27T06:18:49.539Z,4.63
2023-03-27T06:24:27.825Z,4.80
2023-03-27T06:27:21.288Z,4.70
2023-03-27T06:30:37.789Z,5.07
2023-03-27T06:34:13.775Z,4.80
2023-03-27T06:37:41.400Z,4.70
2023-03-27T06:40:44.173Z,5.30
2023-03-27T06:43:53.888Z,4.40
2023-03-27T06:47:05.923Z,4.23
2023-03-27T06:50:00.808Z,4.57
2023-03-27T06:52:33.287Z,5.10
2023-03-27T06:55:16.053Z,5.53
2023-03-27T06:57:54.206Z,5.20
2023-03-27T07:00:26.490Z,5.27
2023-03-27T07:03:14.412Z,4.90
2023-03-27T07:06:02.281Z,5.20
2023-03-27T07:08:43.327Z,4.67
2023-03-27T07:11:12.582Z,4.63
2023-03-27T07:13:51.124Z,5.40
2023-03-27T07:16:26.898Z,4.60
2023-03-27T07:18:55.904Z,7.10
2023-03-27T07:21:26.952Z,9.10
2023-03-27T07:24:03.746Z,8.20
2023-03-27T07:26:35.009Z,7.97
2023-03-27T07:29:10.881Z,7.13
2023-03-27T07:34:20.985Z,6.60
2023-03-27T07:37:04.583Z,5.47
2023-03-27T07:39:36.584Z,5.67
2023-03-27T07:42:05.668Z,5.90
2023-03-27T07:44:47.430Z,5.10
2023-03-27T07:47:16.786Z,5.50
2023-03-27T07:49:47.160Z,10.87
2023-03-27T07:52:21.926Z,8.63
2023-03-27T07:55:00.862Z,6.37
2023-03-27T07:58:00.557Z,4.77
2023-03-27T08:00:32.602Z,3.97
2023-03-27T08:03:11.073Z,4.20
2023-03-27T08:05:44.775Z,4.33
2023-03-27T08:08:17.126Z,4.00
2023-03-27T08:11:03.563Z,3.70
2023-03-27T08:13:37.407Z,3.40
2023-03-27T08:16:10.658Z,3.37
2023-03-27T08:18:45.718Z,3.60
2023-03-27T08:21:15.934Z,3.30
2023-03-27T08:24:08.188Z,4.33
2023-03-27T08:26:58.942Z,3.87
2023-03-27T08:29:28.328Z,3.70
2023-03-27T08:31:57.262Z,3.90
2023-03-27T08:34:26.573Z,3.60
2023-03-27T08:36:56.461Z,4.00
2023-03-27T08:39:32.843Z,3.07
2023-03-27T08:42:17.810Z,2.67
2023-03-27T08:44:55.007Z,2.80
2023-03-27T08:47:41.756Z,2.60
2023-03-27T08:50:33.883Z,2.10
2023-03-27T08:53:18.564Z,2.90
2023-03-27T08:55:48.238Z,3.20
2023-03-27T08:58:28.347Z,3.13
2023-03-27T09:01:18.877Z,3.60
2023-03-27T09:03:58.659Z,3.20
2023-03-27T09:06:30.416Z,2.90
2023-03-27T09:09:08.730Z,3.30
2023-03-27T09:11:48.129Z,2.70
2023-03-27T09:14:31.177Z,2.50
2023-03-27T09:17:02.542Z,2.57
2023-03-27T09:19:42.372Z,2.17
2023-03-27T09:22:18.796Z,2.77
2023-03-27T09:25:02.606Z,2.97
2023-03-27T09:27:58.837Z,3.15
2023-03-27T09:30:42.410Z,3.47
2023-03-27T09:33:22.418Z,2.55
2023-03-27T09:35:51.214Z,2.05
2023-03-27T09:38:27.967Z,2.40
2023-03-27T09:41:00.220Z,2.70
2023-03-27T09:43:35.691Z,3.00
2023-03-27T09:46:07.510Z,2.50
2023-03-27T09:48:41.393Z,2.13
2023-03-27T09:51:38.233Z,2.17
2023-03-27T09:54:09.508Z,1.85
2023-03-27T09:56:41.214Z,1.70
2023-03-27T09:59:20.811Z,2.30
2023-03-27T10:01:52.021Z,2.40
2023-03-27T10:04:23.463Z,2.83
2023-03-27T10:07:05.675Z,2.50
2023-03-27T10:10:11.983Z,3.22
2023-03-27T10:13:03.503Z,2.63
2023-03-27T10:15:41.996Z,2.97
2023-03-27T10:18:28.462Z,2.10
2023-03-27T10:21:31.794Z,2.50
2023-03-27T10:24:04.242Z,2.60
2023-03-27T10:26:59.610Z,2.50
2023-03-27T10:29:32.298Z,2.20
2023-03-27T10:32:04.259Z,2.45
2023-03-27T10:34:51.919Z,2.30
2023-03-27T10:37:51.262Z,2.50
2023-03-27T10:40:59.312Z,2.13
2023-03-27T10:43:41.583Z,1.60
2023-03-27T10:46:13.744Z,1.92
2023-03-27T10:48:53.646Z,1.92
2023-03-27T10:51:46.039Z,2.20
2023-03-27T10:54:31.329Z,1.88
2023-03-27T10:57:03.720Z,2.30
2023-03-27T10:59:41.928Z,2.10
2023-03-27T11:02:25.305Z,1.98
2023-03-27T11:05:00.552Z,2.10
2023-03-27T11:07:34.117Z,2.10
2023-03-27T11:10:13.368Z,2.10
2023-03-27T11:12:46.776Z,2.30
2023-03-27T11:15:22.375Z,2.17
2023-03-27T11:17:58.800Z,2.10
2023-03-27T11:20:45.957Z,2.47
2023-03-27T11:23:40.420Z,2.40
2023-03-27T11:26:37.042Z,2.17
2023-03-27T11:29:09.600Z,2.20
2023-03-27T11:31:52.236Z,2.30
2023-03-27T11:34:49.465Z,2.57
2023-03-27T11:37:43.790Z,2.40
2023-03-27T11:40:21.036Z,2.30
2023-03-27T11:42:58.391Z,2.27
2023-03-27T11:45:37.772Z,2.10
2023-03-27T11:48:24.820Z,2.00
2023-03-27T11:51:00.782Z,2.40
2023-03-27T11:53:54.940Z,1.83
2023-03-27T11:56:54.493Z,2.10
2023-03-27T12:00:09.590Z,2.20
2023-03-27T12:03:15.594Z,2.53
2023-03-27T12:05:58.548Z,2.53
2023-03-27T12:08:53.013Z,2.00
2023-03-27T12:11:24.217Z,2.50
2023-03-27T12:14:23.899Z,2.27
2023-03-27T12:17:33.564Z,1.93
2023-03-27T12:20:53.812Z,2.40
2023-03-27T12:23:42.907Z,1.93
2023-03-27T12:26:50.900Z,2.07
2023-03-27T12:29:59.341Z,1.80
2023-03-27T12:32:56.314Z,2.00
2023-03-27T12:35:31.846Z,1.90
2023-03-27T12:38:03.604Z,1.97
2023-03-27T12:40:42.062Z,2.10
2023-03-27T12:43:29.904Z,2.20
2023-03-27T12:46:37.251Z,2.10
2023-03-27T12:50:07.218Z,2.30
2023-03-27T12:52:39.857Z,2.10
2023-03-27T12:55:33.810Z,2.07
2023-03-27T12:58:05.407Z,2.13
2023-03-27T13:01:11.130Z,2.10
2023-03-27T13:04:33.021Z,1.90
2023-03-27T13:07:11.192Z,2.17
2023-03-27T13:10:19.410Z,1.80
2023-03-27T13:13:06.127Z,1.80
2023-03-27T13:15:57.751Z,1.87
2023-03-27T13:18:57.181Z,2.07
2023-03-27T13:21:39.696Z,1.80
2023-03-27T13:24:27.418Z,1.70
2023-03-27T13:27:08.807Z,1.90
2023-03-27T13:29:41.532Z,1.70
2023-03-27T13:32:37.826Z,1.70
2023-03-27T13:35:40.784Z,1.80
2023-03-27T13:38:13.667Z,1.73
2023-03-27T13:41:42.459Z,1.53
2023-03-27T13:44:25.295Z,1.60
2023-03-27T13:46:59.946Z,1.70
2023-03-27T13:49:59.446Z,1.43
2023-03-27T13:52:55.950Z,1.70
2023-03-27T13:56:07.499Z,1.50
2023-03-27T13:59:45.896Z,1.50
2023-03-27T14:02:48.142Z,1.37
2023-03-27T14:05:49.450Z,1.57
2023-03-27T14:08:33.110Z,1.40
2023-03-27T14:11:38.246Z,1.70
2023-03-27T14:14:38.129Z,1.57
2023-03-27T14:17:29.834Z,1.70
2023-03-27T14:20:23.617Z,1.47
2023-03-27T14:23:00.716Z,1.77
2023-03-27T14:25:38.459Z,1.33
2023-03-27T14:28:34.787Z,1.77
2023-03-27T14:31:11.461Z,1.93
2023-03-27T14:34:03.127Z,1.50
2023-03-27T14:36:36.025Z,1.60
2023-03-27T14:39:17.197Z,1.57
2023-03-27T14:41:55.932Z,1.40
2023-03-27T14:44:26.098Z,1.60
2023-03-27T14:47:04.410Z,1.40
2023-03-27T14:49:37.364Z,1.50
2023-03-27T14:52:10.757Z,1.70
2023-03-27T14:55:06.953Z,1.70
2023-03-27T14:57:41.573Z,1.57
2023-03-27T15:00:17.066Z,1.63
2023-03-27T15:02:52.357Z,1.70
2023-03-27T15:05:23.233Z,1.40
2023-03-27T15:07:58.733Z,1.50
2023-03-27T15:10:59.345Z,1.43
2023-03-27T15:13:39.643Z,1.77
2023-03-27T15:16:19.386Z,1.80
2023-03-27T15:19:04.904Z,1.70
2023-03-27T15:21:45.254Z,1.60
2023-03-27T15:24:17.918Z,1.50
2023-03-27T15:26:49.381Z,1.63
2023-03-27T15:29:22.886Z,1.67
2023-03-27T15:31:53.052Z,1.50
2023-03-27T15:34:34.321Z,1.50
2023-03-27T15:37:05.823Z,1.90
2023-03-27T15:39:37.828Z,2.00
2023-03-27T15:42:08.876Z,1.93
2023-03-27T15:44:39.840Z,1.60
2023-03-27T15:47:25.832Z,1.80
2023-03-27T15:50:17.238Z,1.73
2023-03-27T15:52:50.549Z,1.83
2023-03-27T15:55:47.840Z,1.53
2023-03-27T15:58:22.308Z,1.80
2023-03-27T16:00:53.567Z,1.70
2023-03-27T16:03:25.144Z,1.60
2023-03-27T16:05:58.537Z,1.53
2023-03-27T16:08:32.649Z,1.40
2023-03-27T16:11:01.896Z,1.87
2023-03-27T16:13:35.684Z,1.70
2023-03-27T16:16:07.175Z,1.50
2023-03-27T16:18:38.198Z,1.60
2023-03-27T16:21:10.751Z,1.70
2023-03-27T16:23:39.398Z,1.60
2023-03-27T16:26:10.822Z,1.60
2023-03-27T16:28:39.522Z,1.60
2023-03-27T16:31:12.732Z,1.70
2023-03-27T16:33:43.536Z,1.73
2023-03-27T16:36:15.423Z,1.60
2023-03-27T16:38:44.770Z,1.60
2023-03-27T16:41:15.316Z,1.30
2023-03-27T16:43:44.986Z,1.63
2023-03-27T16:46:19.986Z,1.40
2023-03-27T16:48:48.737Z,1.40
2023-03-27T16:51:19.296Z,1.70
2023-03-27T16:53:48.180Z,1.60
2023-03-27T16:56:17.435Z,1.50
2023-03-27T16:58:46.470Z,1.97
2023-03-27T17:04:14.868Z,1.40
2023-03-27T17:06:51.634Z,1.50
2023-03-27T17:09:23.482Z,1.50
2023-03-27T17:11:52.373Z,1.50
2023-03-27T17:14:21.118Z,1.50
2023-03-27T17:17:14.731Z,1.43
2023-03-27T17:19:53.484Z,1.43
2023-03-27T17:22:24.099Z,1.30
2023-03-27T17:24:56.543Z,1.53
2023-03-27T17:27:27.306Z,1.50
2023-03-27T17:29:56.910Z,1.70
2023-03-27T17:32:26.200Z,1.70
2023-03-27T17:34:55.993Z,1.40
2023-03-27T17:37:27.488Z,1.50
2023-03-27T17:39:56.334Z,1.60
2023-03-27T17:42:25.324Z,1.60
2023-03-27T17:44:54.164Z,1.70
2023-03-27T17:47:22.921Z,1.43
2023-03-27T17:49:53.322Z,1.53
2023-03-27T17:52:23.548Z,1.53
2023-03-27T17:54:53.734Z,1.40
2023-03-27T17:57:23.035Z,1.90
2023-03-27T17:59:51.818Z,1.80
2023-03-27T18:02:22.763Z,1.60
2023-03-27T18:04:52.476Z,1.40
2023-03-27T18:07:21.891Z,1.67
